Time;durP1;ratioP1;P1;durP2;ratioP2;P2;SDS_P1;SDS_P2;PMS_P1;PMS_P2;Temp;Humidity;BMP_temperature;BMP_pressure;BME280_temperature;BME280_humidity;BME280_pressure;Samples;Min_cycle;Max_cycle;Signal;HPM_P1;HPM_P2
2021/01/26 00:00:35;;;;;;;9.40;2.42;;;;;;;-145.48;100.00;59605.97;6217668;23;20445;-83
2021/01/26 00:03:00;;;;;;;14.00;2.92;;;;;;;-145.48;100.00;59605.97;6220896;23;20004;-84
2021/01/26 00:05:26;;;;;;;9.13;2.40;;;;;;;-145.48;100.00;59605.97;6248185;22;20020;-83
2021/01/26 00:07:51;;;;;;;18.65;2.80;;;;;;;-145.48;100.00;59605.97;6222096;23;20015;-83
2021/01/26 00:10:16;;;;;;;11.93;3.47;;;;;;;-145.48;100.00;59605.97;6248661;23;20001;-84
2021/01/26 00:12:42;;;;;;;10.18;2.67;;;;;;;-145.48;100.00;59605.97;6249158;23;20000;-84
2021/01/26 00:15:08;;;;;;;15.55;3.47;;;;;;;-145.48;100.00;59605.97;6251090;23;20000;-84
2021/01/26 00:17:33;;;;;;;16.60;3.40;;;;;;;-145.48;100.00;59605.97;6251631;23;20004;-83
2021/01/26 00:19:59;;;;;;;11.65;3.92;;;;;;;-145.48;100.00;59605.97;6224048;23;20450;-84
2021/01/26 00:22:24;;;;;;;11.57;4.25;;;;;;;-145.48;100.00;59605.97;6250658;23;20008;-83
2021/01/26 00:24:49;;;;;;;22.08;3.00;;;;;;;-145.48;100.00;59605.97;6223268;23;20004;-84
2021/01/26 00:27:14;;;;;;;15.25;3.10;;;;;;;-145.48;100.00;59605.97;6223804;23;20004;-83
2021/01/26 00:29:40;;;;;;;23.58;4.85;;;;;;;-145.48;100.00;59605.97;6219680;23;20008;-83
2021/01/26 00:32:06;;;;;;;17.50;2.67;;;;;;;-145.48;100.00;59605.97;6248239;23;20799;-83
2021/01/26 00:34:31;;;;;;;17.05;2.90;;;;;;;-145.48;100.00;59605.97;6221329;23;20039;-83
2021/01/26 00:36:57;;;;;;;13.82;2.60;;;;;;;-145.48;100.00;59605.97;6221436;23;20026;-83
2021/01/26 00:39:23;;;;;;;14.18;3.05;;;;;;;-145.48;100.00;59605.97;6250429;23;20057;-84
2021/01/26 00:41:48;;;;;;;20.55;3.95;;;;;;;-145.48;100.00;59605.97;6223157;23;20004;-82
2021/01/26 00:44:14;;;;;;;20.02;3.47;;;;;;;-145.48;100.00;59605.97;6247419;23;20557;-83
2021/01/26 00:46:39;;;;;;;14.98;3.00;;;;;;;-145.48;100.00;59605.97;6246817;23;20381;-83
2021/01/26 00:49:04;;;;;;;13.45;2.72;;;;;;;-145.48;100.00;59605.97;6251088;23;20012;-84
2021/01/26 00:51:29;;;;;;;21.33;2.80;;;;;;;-145.48;100.00;59605.97;6252310;23;20004;-84
2021/01/26 00:53:55;;;;;;;19.70;3.65;;;;;;;-145.48;100.00;59605.97;6225743;23;20083;-83
2021/01/26 00:56:20;;;;;;;14.95;2.90;;;;;;;-145.48;100.00;59605.97;6251973;23;20778;-83
2021/01/26 00:58:45;;;;;;;19.75;4.15;;;;;;;-145.48;100.00;59605.97;6252194;23;20015;-84
2021/01/26 01:01:11;;;;;;;12.57;2.88;;;;;;;-145.48;100.00;59605.97;6222420;23;20008;-83
2021/01/26 01:03:36;;;;;;;20.27;3.80;;;;;;;-145.48;100.00;59605.97;6251442;23;20004;-84
2021/01/26 01:06:02;;;;;;;15.98;3.65;;;;;;;-145.48;100.00;59605.97;6252105;23;20422;-84
2021/01/26 01:08:27;;;;;;;17.45;2.75;;;;;;;-145.48;100.00;59605.97;6224869;23;20331;-83
2021/01/26 01:10:53;;;;;;;19.23;3.47;;;;;;;-145.48;100.00;59605.97;6249523;23;20008;-83
2021/01/26 01:13:18;;;;;;;10.90;3.63;;;;;;;-145.48;100.00;59605.97;6222394;23;20345;-83
2021/01/26 01:15:43;;;;;;;17.80;3.30;;;;;;;-145.48;100.00;59605.97;6248924;23;20012;-84
2021/01/26 01:18:10;;;;;;;11.18;2.88;;;;;;;-145.48;100.00;59605.97;6248700;23;20008;-83
2021/01/26 01:20:36;;;;;;;13.23;3.38;;;;;;;-145.48;100.00;59605.97;6220162;23;20027;-83
2021/01/26 01:23:01;;;;;;;16.15;3.63;;;;;;;-145.48;100.00;59605.97;6247491;23;20061;-83
2021/01/26 01:25:27;;;;;;;15.00;5.47;;;;;;;-145.48;100.00;59605.97;6248193;23;20011;-83
2021/01/26 01:27:52;;;;;;;17.85;3.72;;;;;;;-145.48;100.00;59605.97;6247144;23;20011;-83
2021/01/26 01:30:25;;;;;;;14.48;4.43;;;;;;;-145.48;100.00;59605.97;6243757;23;20004;-83
2021/01/26 01:32:51;;;;;;;15.40;3.03;;;;;;;-145.48;100.00;59605.97;6245676;23;20428;-83
2021/01/26 01:35:17;;;;;;;15.75;3.28;;;;;;;-145.48;100.00;59605.97;6221619;23;20083;-82
2021/01/26 01:37:42;;;;;;;13.43;2.35;;;;;;;-145.48;100.00;59605.97;6247241;23;20004;-83
2021/01/26 01:40:11;;;;;;;9.57;2.08;;;;;;;-145.48;100.00;59605.97;6250812;23;20004;-84
2021/01/26 01:42:37;;;;;;;13.68;3.05;;;;;;;-145.48;100.00;59605.97;6248576;23;20004;-83
2021/01/26 01:45:05;;;;;;;14.55;2.75;;;;;;;-145.48;100.00;59605.97;6247695;23;20422;-84
2021/01/26 01:47:38;;;;;;;10.68;2.28;;;;;;;-145.48;100.00;59605.97;6222623;23;20004;-84
2021/01/26 01:50:07;;;;;;;10.02;2.17;;;;;;;-145.48;100.00;59605.97;6221177;23;20007;-83
2021/01/26 01:52:35;;;;;;;11.73;2.97;;;;;;;-145.48;100.00;59605.97;6220682;23;20031;-82
2021/01/26 01:55:22;;;;;;;12.02;2.40;;;;;;;-145.48;100.00;59605.97;6221507;23;20000;-84
2021/01/26 01:57:55;;;;;;;12.82;1.77;;;;;;;-145.48;100.00;59605.97;6220818;23;20008;-84
2021/01/26 02:00:22;;;;;;;18.80;2.65;;;;;;;-145.48;100.00;59605.97;6220915;23;20000;-84
2021/01/26 02:03:11;;;;;;;15.40;2.20;;;;;;;-145.48;100.00;59605.97;6220179;23;20020;-84
2021/01/26 02:05:37;;;;;;;12.45;2.67;;;;;;;-145.48;100.00;59605.97;6214721;23;20016;-83
2021/01/26 02:08:06;;;;;;;17.35;2.35;;;;;;;-145.48;100.00;59605.97;6216319;23;20090;-83
2021/01/26 02:10:33;;;;;;;16.15;3.47;;;;;;;-145.48;100.00;59605.97;6214257;23;20071;-83
2021/01/26 02:12:59;;;;;;;9.95;3.50;;;;;;;-145.48;100.00;59605.97;6216120;23;20005;-84
2021/01/26 02:15:24;;;;;;;16.48;3.53;;;;;;;-145.48;100.00;59605.97;6215288;23;20087;-83
2021/01/26 02:18:23;;;;;;;14.25;3.20;;;;;;;-145.48;100.00;59605.97;6220007;23;20008;-84
2021/01/26 02:21:29;;;;;;;19.98;3.45;;;;;;;-145.48;100.00;59605.97;6220645;23;20724;-84
2021/01/26 02:24:36;;;;;;;14.02;3.05;;;;;;;-145.48;100.00;59605.97;6220559;23;20022;-84
2021/01/26 02:27:26;;;;;;;19.77;3.38;;;;;;;-145.48;100.00;59605.97;6219383;23;20027;-83
2021/01/26 02:30:16;;;;;;;20.40;3.33;;;;;;;-145.48;100.00;59605.97;6213417;23;20055;-84
2021/01/26 02:33:27;;;;;;;24.73;4.85;;;;;;;-145.48;100.00;59605.97;6217100;23;20681;-84
2021/01/26 02:36:24;;;;;;;15.27;2.42;;;;;;;-145.48;100.00;59605.97;6215600;23;20019;-84
2021/01/26 02:39:10;;;;;;;16.52;2.90;;;;;;;-145.48;100.00;59605.97;6216378;23;19996;-84
2021/01/26 02:42:00;;;;;;;10.77;2.55;;;;;;;-145.48;100.00;59605.97;6216732;23;20300;-83
2021/01/26 02:44:34;;;;;;;16.85;3.63;;;;;;;-145.48;100.00;59605.97;6214240;23;20058;-83
2021/01/26 02:47:02;;;;;;;15.05;2.88;;;;;;;-145.48;100.00;59605.97;6216885;23;20001;-83
2021/01/26 02:49:46;;;;;;;26.42;3.92;;;;;;;-145.48;100.00;59605.97;6219486;23;20040;-84
2021/01/26 02:52:25;;;;;;;21.45;3.20;;;;;;;-145.48;100.00;59605.97;6225384;23;20000;-84
2021/01/26 02:55:08;;;;;;;15.23;3.55;;;;;;;-145.48;100.00;59605.97;6219924;23;19997;-84
2021/01/26 02:57:43;;;;;;;19.13;3.95;;;;;;;-145.48;100.00;59605.97;6225875;23;20001;-82
2021/01/26 03:01:01;;;;;;;22.27;3.95;;;;;;;-145.48;100.00;59605.97;6221385;23;20087;-84
2021/01/26 03:03:49;;;;;;;19.17;4.15;;;;;;;-145.48;100.00;59605.97;6221489;23;20068;-83
2021/01/26 03:07:10;;;;;;;20.77;2.90;;;;;;;-145.48;100.00;59605.97;6224187;23;20434;-84
2021/01/26 03:10:01;;;;;;;8.65;2.28;;;;;;;-145.48;100.00;59605.97;6104873;23;20139;-84
2021/01/26 03:12:34;;;;;;;26.60;3.75;;;;;;;-145.48;100.00;59605.97;6128737;23;20033;-83
2021/01/26 03:15:34;;;;;;;20.67;2.83;;;;;;;-145.48;100.00;59605.97;6103145;23;20013;-83
2021/01/26 03:18:06;;;;;;;20.35;2.95;;;;;;;-145.48;100.00;59605.97;6099300;23;20017;-83
2021/01/26 03:20:37;;;;;;;12.48;2.58;;;;;;;-145.48;100.00;59605.97;6124757;23;20364;-84
2021/01/26 03:23:31;;;;;;;12.70;2.78;;;;;;;-145.48;100.00;59605.97;6126359;23;20006;-83
2021/01/26 03:25:56;;;;;;;15.60;3.17;;;;;;;-145.48;100.00;59605.97;6122093;23;20010;-83
2021/01/26 03:28:26;;;;;;;18.30;3.15;;;;;;;-145.48;100.00;59605.97;6098777;23;20783;-83
2021/01/26 03:30:57;;;;;;;20.05;3.55;;;;;;;-145.48;100.00;59605.97;6123532;23;20013;-83
2021/01/26 03:33:30;;;;;;;16.25;2.67;;;;;;;-145.48;100.00;59605.97;6125165;23;20012;-82
2021/01/26 03:35:56;;;;;;;18.60;4.18;;;;;;;-145.48;100.00;59605.97;6099379;23;20759;-83
2021/01/26 03:38:24;;;;;;;18.77;3.65;;;;;;;-145.48;100.00;59605.97;6128245;23;20014;-83
2021/01/26 03:40:51;;;;;;;21.83;2.95;;;;;;;-145.48;100.00;59605.97;6199566;23;20016;-83
2021/01/26 03:43:23;;;;;;;20.50;3.22;;;;;;;-145.48;100.00;59605.97;6219934;23;20028;-82
2021/01/26 03:46:39;;;;;;;18.00;2.25;;;;;;;-145.48;100.00;59605.97;6222321;23;20032;-82
2021/01/26 03:49:35;;;;;;;13.10;2.63;;;;;;;-145.48;100.00;59605.97;6072978;23;20066;-83
2021/01/26 03:52:11;;;;;;;16.95;3.05;;;;;;;-145.48;100.00;59605.97;6095152;23;20002;-83
2021/01/26 03:54:43;;;;;;;18.58;2.97;;;;;;;-145.48;100.00;59605.97;6098322;23;20010;-83
2021/01/26 03:57:32;;;;;;;18.77;3.67;;;;;;;-145.48;100.00;59605.97;6100952;23;20010;-83
2021/01/26 04:00:03;;;;;;;15.07;2.92;;;;;;;-145.48;100.00;59605.97;6099739;23;20014;-82
2021/01/26 04:02:48;;;;;;;18.80;4.38;;;;;;;-145.48;100.00;59605.97;6099252;23;20065;-84
2021/01/26 04:05:20;;;;;;;16.77;3.20;;;;;;;-145.48;100.00;59605.97;6096740;23;20149;-84
2021/01/26 04:07:55;;;;;;;11.82;2.47;;;;;;;-145.48;100.00;59605.97;6074532;23;20013;-84
2021/01/26 04:10:24;;;;;;;19.15;4.03;;;;;;;-145.48;100.00;59605.97;6101909;23;20010;-84
2021/01/26 04:12:56;;;;;;;13.07;3.08;;;;;;;-145.48;100.00;59605.97;6075377;23;20009;-83
2021/01/26 04:15:42;;;;;;;14.57;3.30;;;;;;;-145.48;100.00;59605.97;6070695;23;20017;-83
2021/01/26 04:18:11;;;;;;;19.65;4.38;;;;;;;-145.48;100.00;59605.97;6069067;23;20006;-83
2021/01/26 04:20:37;;;;;;;20.65;3.05;;;;;;;-145.48;100.00;59605.97;6069908;23;20006;-81
2021/01/26 04:23:04;;;;;;;19.13;3.15;;;;;;;-145.48;100.00;59605.97;6069397;23;20006;-81
2021/01/26 04:25:32;;;;;;;15.13;4.30;;;;;;;-145.48;100.00;59605.97;6129111;23;20601;-82
2021/01/26 04:27:58;;;;;;;15.10;2.90;;;;;;;-145.48;100.00;59605.97;6215254;23;20001;-82
2021/01/26 04:30:24;;;;;;;19.13;3.15;;;;;;;-145.48;100.00;59605.97;6209959;23;20011;-81
2021/01/26 04:33:05;;;;;;;15.55;3.72;;;;;;;-145.48;100.00;59605.97;6214915;23;19997;-82
2021/01/26 04:35:31;;;;;;;16.05;3.17;;;;;;;-145.48;100.00;59605.97;6214986;23;20007;-82
2021/01/26 04:37:57;;;;;;;16.10;3.35;;;;;;;-145.48;100.00;59605.97;6218436;23;20004;-84
2021/01/26 04:40:25;;;;;;;16.58;3.42;;;;;;;-145.48;100.00;59605.97;6221960;23;20094;-83
2021/01/26 04:43:08;;;;;;;24.33;3.80;;;;;;;-145.48;100.00;59605.97;6217274;23;20091;-83
2021/01/26 04:45:36;;;;;;;13.95;3.67;;;;;;;-145.48;100.00;59605.97;6218840;23;20011;-83
2021/01/26 04:48:23;;;;;;;44.75;4.18;;;;;;;-145.48;100.00;59605.97;6217757;23;20019;-83
2021/01/26 04:50:56;;;;;;;15.82;2.78;;;;;;;-145.48;100.00;59605.97;6218827;23;20005;-83
2021/01/26 04:53:30;;;;;;;17.33;3.85;;;;;;;-145.48;100.00;59605.97;6218932;23;20048;-82
2021/01/26 04:56:15;;;;;;;24.20;4.32;;;;;;;-145.48;100.00;59605.97;6219035;23;20004;-83
2021/01/26 04:58:56;;;;;;;26.40;5.35;;;;;;;-145.48;100.00;59605.97;6218317;23;20062;-82
2021/01/26 05:01:56;;;;;;;14.30;3.78;;;;;;;-145.48;100.00;59605.97;6214849;23;20015;-82
2021/01/26 05:04:50;;;;;;;28.13;4.30;;;;;;;-145.48;100.00;59605.97;6216563;23;20024;-83
2021/01/26 05:07:27;;;;;;;28.20;4.18;;;;;;;-145.48;100.00;59605.97;6220094;23;20004;-83
2021/01/26 05:13:25;;;;;;;15.57;3.30;;;;;;;-145.48;100.00;59605.97;6208881;23;20032;-82
2021/01/26 05:16:08;;;;;;;23.48;3.42;;;;;;;-145.48;100.00;59605.97;6216987;23;20008;-82
2021/01/26 05:18:54;;;;;;;16.75;3.47;;;;;;;-145.48;100.00;59605.97;6216943;23;20067;-82
2021/01/26 05:21:43;;;;;;;;;;;;;;;-145.48;100.00;59605.97;6218335;23;20008;-82
2021/01/26 05:24:21;;;;;;;8.73;1.40;;;;;;;-145.48;100.00;59605.97;6213873;23;20242;-81
2021/01/26 05:26:47;;;;;;;8.07;0.88;;;;;;;-145.48;100.00;59605.97;6215375;23;20000;-82
2021/01/26 05:29:13;;;;;;;4.00;1.50;;;;;;;-145.48;100.00;59605.97;6216112;23;20054;-82
2021/01/26 05:31:44;;;;;;;5.35;1.50;;;;;;;-145.48;100.00;59605.97;6219484;23;20001;-83
2021/01/26 05:34:34;;;;;;;8.35;1.33;;;;;;;-145.48;100.00;59605.97;6189082;23;20176;-82
2021/01/26 05:37:23;;;;;;;4.20;1.00;;;;;;;-145.48;100.00;59605.97;6192578;23;20042;-83
2021/01/26 05:40:17;;;;;;;9.90;1.00;;;;;;;-145.48;100.00;59605.97;6195516;23;20091;-83
2021/01/26 05:42:48;;;;;;;7.47;2.08;;;;;;;-145.48;100.00;59605.97;6141677;23;20013;-83
2021/01/26 05:45:41;;;;;;;6.90;1.33;;;;;;;-145.48;100.00;59605.97;6166393;23;20017;-83
2021/01/26 05:48:10;;;;;;;8.57;1.65;;;;;;;-145.48;100.00;59605.97;6161319;23;20025;-82
2021/01/26 05:50:44;;;;;;;14.43;2.60;;;;;;;-145.48;100.00;59605.97;6155018;23;20024;-83
2021/01/26 05:53:27;;;;;;;6.90;2.10;;;;;;;-145.48;100.00;59605.97;6161920;23;20049;-82
2021/01/26 05:56:11;;;;;;;25.92;5.10;;;;;;;-145.48;100.00;59605.97;6160997;23;20095;-83
2021/01/26 05:58:38;;;;;;;33.80;3.75;;;;;;;-145.48;100.00;59605.97;6135300;23;20028;-83
2021/01/26 06:01:26;;;;;;;21.42;4.90;;;;;;;-145.48;100.00;59605.97;6159308;23;20010;-84
2021/01/26 06:04:20;;;;;;;30.38;4.60;;;;;;;-145.48;100.00;59605.97;6160424;23;20692;-84
2021/01/26 06:07:01;;;;;;;27.42;4.45;;;;;;;-145.48;100.00;59605.97;6159804;23;20009;-84
2021/01/26 06:09:38;;;;;;;18.08;4.07;;;;;;;-145.48;100.00;59605.97;6156065;23;20015;-84
2021/01/26 06:12:08;;;;;;;20.95;4.50;;;;;;;-145.48;100.00;59605.97;6154955;23;20005;-83
2021/01/26 06:14:33;;;;;;;24.20;3.55;;;;;;;-145.48;100.00;59605.97;6156399;23;20009;-83
2021/01/26 06:17:12;;;;;;;20.92;3.88;;;;;;;-145.48;100.00;59605.97;6157762;23;20387;-84
2021/01/26 06:19:39;;;;;;;23.08;4.90;;;;;;;-145.48;100.00;59605.97;6177465;23;20031;-84
2021/01/26 06:22:05;;;;;;;26.77;4.28;;;;;;;-145.48;100.00;59605.97;6218804;23;20381;-84
2021/01/26 06:24:34;;;;;;;21.98;3.75;;;;;;;-145.48;100.00;59605.97;6218333;23;20032;-84
2021/01/26 06:27:11;;;;;;;25.70;4.30;;;;;;;-145.48;100.00;59605.97;6218329;23;20015;-84
2021/01/26 06:29:43;;;;;;;23.00;3.95;;;;;;;-145.48;100.00;59605.97;6218222;23;20027;-85
2021/01/26 06:32:38;;;;;;;37.58;4.53;;;;;;;-145.48;100.00;59605.97;6218193;23;20020;-84
2021/01/26 06:35:11;;;;;;;37.63;5.53;;;;;;;-145.48;100.00;59605.97;6219624;23;20431;-83
2021/01/26 06:38:03;;;;;;;17.33;3.95;;;;;;;-145.48;100.00;59605.97;6219071;23;20005;-83
2021/01/26 06:40:57;;;;;;;7.53;1.73;;;;;;;-145.48;100.00;59605.97;6216749;23;20001;-83
2021/01/26 06:43:26;;;;;;;10.90;2.30;;;;;;;-145.48;100.00;59605.97;6227378;23;20026;-83
2021/01/26 06:46:12;;;;;;;13.25;2.47;;;;;;;-145.48;100.00;59605.97;6221709;23;20107;-83
2021/01/26 06:48:37;;;;;;;17.90;3.75;;;;;;;-145.48;100.00;59605.97;6217481;23;20095;-84
2021/01/26 06:51:29;;;;;;;8.70;1.95;;;;;;;-145.48;100.00;59605.97;6212268;23;20473;-82
2021/01/26 06:54:26;;;;;;;11.25;2.20;;;;;;;-145.48;100.00;59605.97;6214137;23;20512;-84
2021/01/26 06:57:12;;;;;;;5.50;1.30;;;;;;;-145.48;100.00;59605.97;6212328;23;20008;-83
2021/01/26 07:00:27;;;;;;;7.97;1.58;;;;;;;-145.48;100.00;59605.97;6222254;23;20009;-83
2021/01/26 07:03:30;;;;;;;6.40;1.10;;;;;;;-145.48;100.00;59605.97;6149147;23;20016;-83
2021/01/26 07:06:37;;;;;;;5.78;1.08;;;;;;;-145.48;100.00;59605.97;6175915;23;20047;-83
2021/01/26 07:09:26;;;;;;;7.53;0.98;;;;;;;-145.48;100.00;59605.97;6192612;23;20005;-82
2021/01/26 07:12:10;;;;;;;5.40;1.45;;;;;;;-145.48;100.00;59605.97;6211994;23;20004;-84
2021/01/26 07:14:35;;;;;;;11.23;2.58;;;;;;;-145.48;100.00;59605.97;6211980;23;20012;-83
2021/01/26 07:17:05;;;;;;;14.50;1.88;;;;;;;-145.48;100.00;59605.97;6217488;23;20756;-83
2021/01/26 07:19:54;;;;;;;9.10;1.30;;;;;;;-145.48;100.00;59605.97;6209483;23;20001;-82
2021/01/26 07:22:41;;;;;;;13.15;1.90;;;;;;;-145.48;100.00;59605.97;6212848;23;20080;-82
2021/01/26 07:25:22;;;;;;;7.25;2.55;;;;;;;-145.48;100.00;59605.97;6217755;23;20043;-82
2021/01/26 07:27:59;;;;;;;6.47;1.55;;;;;;;-145.48;100.00;59605.97;6213105;23;20064;-83
2021/01/26 07:31:08;;;;;;;5.50;1.90;;;;;;;-145.48;100.00;59605.97;6212827;23;20335;-81
2021/01/26 07:33:54;;;;;;;4.40;1.08;;;;;;;-145.48;100.00;59605.97;6094498;23;20002;-83
2021/01/26 07:36:30;;;;;;;13.38;1.08;;;;;;;-145.48;100.00;59605.97;6098310;23;20006;-83
2021/01/26 07:39:06;;;;;;;8.50;1.30;;;;;;;-145.48;100.00;59605.97;6070818;23;20483;-84
2021/01/26 07:41:47;;;;;;;3.42;1.05;;;;;;;-145.48;100.00;59605.97;6092704;23;20093;-81
2021/01/26 07:44:20;;;;;;;6.43;1.45;;;;;;;-145.48;100.00;59605.97;6092091;23;20013;-82
2021/01/26 07:46:55;;;;;;;8.60;3.00;;;;;;;-145.48;100.00;59605.97;6093945;23;20090;-82
2021/01/26 07:49:51;;;;;;;9.68;2.83;;;;;;;-145.48;100.00;59605.97;6076797;23;20006;-80
2021/01/26 07:52:19;;;;;;;9.57;2.85;;;;;;;-145.48;100.00;59605.97;6078784;23;20066;-81
2021/01/26 07:55:09;;;;;;;9.48;2.55;;;;;;;-145.48;100.00;59605.97;6068823;23;20053;-82
2021/01/26 07:57:41;;;;;;;11.50;2.13;;;;;;;-145.48;100.00;59605.97;6094242;23;20070;-81
2021/01/26 08:00:09;;;;;;;17.40;3.30;;;;;;;-145.48;100.00;59605.97;6069380;23;20587;-82
2021/01/26 08:03:11;;;;;;;9.25;2.70;;;;;;;-145.48;100.00;59605.97;6074239;23;20376;-84
2021/01/26 08:05:43;;;;;;;13.65;2.72;;;;;;;-145.48;100.00;59605.97;6095158;23;20030;-83
2021/01/26 08:08:18;;;;;;;12.98;2.50;;;;;;;-145.48;100.00;59605.97;6192480;23;20363;-82
2021/01/26 08:10:43;;;;;;;16.35;3.38;;;;;;;-145.48;100.00;59605.97;6233459;23;20011;-82
2021/01/26 08:13:09;;;;;;;8.57;2.70;;;;;;;-145.48;100.00;59605.97;6220544;23;20377;-83
2021/01/26 08:15:45;;;;;;;6.13;1.25;;;;;;;-145.48;100.00;59605.97;6220571;23;20004;-83
2021/01/26 08:18:42;;;;;;;6.87;1.77;;;;;;;-145.48;100.00;59605.97;6218057;23;20007;-82
2021/01/26 08:21:27;;;;;;;7.60;1.20;;;;;;;-145.48;100.00;59605.97;6216854;23;20240;-82
2021/01/26 08:24:08;;;;;;;2.53;0.93;;;;;;;-145.48;100.00;59605.97;6217965;23;20011;-82
2021/01/26 08:26:33;;;;;;;9.82;1.88;;;;;;;-145.48;100.00;59605.97;6218317;23;20030;-81
2021/01/26 08:28:58;;;;;;;3.60;1.10;;;;;;;-145.48;100.00;59605.97;6243577;23;20713;-82
2021/01/26 08:31:31;;;;;;;9.10;1.17;;;;;;;-145.48;100.00;59605.97;6244306;23;20027;-82
2021/01/26 08:34:25;;;;;;;5.55;1.35;;;;;;;-145.48;100.00;59605.97;6247205;23;20012;-81
2021/01/26 08:37:09;;;;;;;7.85;1.23;;;;;;;-145.48;100.00;59605.97;6241898;23;20010;-81
2021/01/26 08:39:46;;;;;;;4.60;0.85;;;;;;;-145.48;100.00;59605.97;6247009;23;20441;-81
2021/01/26 08:42:40;;;;;;;6.90;2.22;;;;;;;-145.48;100.00;59605.97;6248773;23;20091;-83
2021/01/26 08:45:10;;;;;;;5.93;1.33;;;;;;;-145.48;100.00;59605.97;6212632;23;20007;-81
2021/01/26 08:47:49;;;;;;;7.13;0.93;;;;;;;-145.48;100.00;59605.97;6253260;23;20082;-82
2021/01/26 08:50:28;;;;;;;13.50;2.50;;;;;;;-145.48;100.00;59605.97;6246877;23;20000;-83
2021/01/26 08:53:32;;;;;;;9.50;1.40;;;;;;;-145.48;100.00;59605.97;6219551;23;20557;-81
2021/01/26 08:56:00;;;;;;;4.82;1.10;;;;;;;-145.48;100.00;59605.97;6244985;23;20496;-81
2021/01/26 08:59:03;;;;;;;6.43;1.58;;;;;;;-145.48;100.00;59605.97;6244673;23;20076;-82
2021/01/26 09:01:34;;;;;;;2.15;1.05;;;;;;;-145.48;100.00;59605.97;6221516;23;20008;-81
2021/01/26 09:04:51;;;;;;;5.60;1.73;;;;;;;-145.48;100.00;59605.97;6218826;23;20027;-83
2021/01/26 09:07:48;;;;;;;6.22;2.00;;;;;;;-145.48;100.00;59605.97;6155284;23;20017;-82
2021/01/26 09:10:20;;;;;;;10.73;2.83;;;;;;;-145.48;100.00;59605.97;6129740;23;20779;-82
2021/01/26 09:12:48;;;;;;;7.10;2.20;;;;;;;-145.48;100.00;59605.97;6128667;23;20085;-82
2021/01/26 09:15:14;;;;;;;7.60;2.22;;;;;;;-145.48;100.00;59605.97;6154877;23;20017;-83
2021/01/26 09:21:01;;;;;;;17.95;4.88;;;;;;;-145.48;100.00;59605.97;6153651;23;20502;-85
2021/01/26 09:23:41;;;;;;;18.88;4.95;;;;;;;-145.48;100.00;59605.97;6130145;23;20009;-84
2021/01/26 09:27:01;;;;;;;16.27;3.72;;;;;;;-145.48;100.00;59605.97;6130420;23;20602;-85
2021/01/26 09:33:13;;;;;;;8.63;2.92;;;;;;;-145.48;100.00;59605.97;6098851;23;20017;-83
2021/01/26 09:36:16;;;;;;;12.07;3.22;;;;;;;-145.48;100.00;59605.97;6097109;23;20018;-83
2021/01/26 09:38:48;;;;;;;12.82;3.17;;;;;;;-145.48;100.00;59605.97;6038195;23;20075;-80
2021/01/26 09:41:16;;;;;;;11.23;3.20;;;;;;;-145.48;100.00;59605.97;6014880;23;20118;-82
2021/01/26 09:43:45;;;;;;;18.45;4.05;;;;;;;-145.48;100.00;59605.97;6087168;23;20014;-83
2021/01/26 09:46:53;;;;;;;15.77;3.65;;;;;;;-145.48;100.00;59605.97;6097727;23;20013;-84
2021/01/26 09:50:04;;;;;;;13.20;4.22;;;;;;;-145.48;100.00;59605.97;6037497;23;20007;-83
2021/01/26 09:52:30;;;;;;;12.65;3.10;;;;;;;-145.48;100.00;59605.97;6037655;23;20454;-82
2021/01/26 09:55:10;;;;;;;15.60;3.47;;;;;;;-145.48;100.00;59605.97;6037355;23;20011;-80
2021/01/26 09:57:54;;;;;;;17.48;5.05;;;;;;;-145.48;100.00;59605.97;6035472;23;20021;-84
2021/01/26 10:03:56;;;;;;;20.95;4.32;;;;;;;-145.48;100.00;59605.97;6079119;23;20045;-84
2021/01/26 10:06:21;;;;;;;19.52;3.92;;;;;;;-145.48;100.00;59605.97;6093147;23;20454;-80
2021/01/26 10:08:46;;;;;;;10.98;4.25;;;;;;;-145.48;100.00;59605.97;6092369;23;20021;-81
2021/01/26 10:11:18;;;;;;;19.20;4.32;;;;;;;-145.48;100.00;59605.97;6067008;23;20067;-80
2021/01/26 10:13:46;;;;;;;19.02;3.95;;;;;;;-145.48;100.00;59605.97;6095712;23;20069;-83
2021/01/26 10:16:34;;;;;;;17.92;3.95;;;;;;;-145.48;100.00;59605.97;6121121;23;20364;-80
2021/01/26 10:19:27;;;;;;;13.52;3.67;;;;;;;-145.48;100.00;59605.97;6128351;23;20010;-83
2021/01/26 10:22:17;;;;;;;17.30;3.55;;;;;;;-145.48;100.00;59605.97;6247011;23;20055;-82
2021/01/26 10:24:43;;;;;;;14.20;3.38;;;;;;;-145.48;100.00;59605.97;6246297;23;20039;-81
2021/01/26 10:27:20;;;;;;;14.70;3.97;;;;;;;-145.48;100.00;59605.97;6220285;23;20003;-82
2021/01/26 10:29:45;;;;;;;17.75;4.15;;;;;;;-145.48;100.00;59605.97;6242172;23;20373;-79
2021/01/26 10:32:32;;;;;;;20.25;4.15;;;;;;;-145.48;100.00;59605.97;6224305;23;20000;-79
2021/01/26 10:34:57;;;;;;;16.08;3.28;;;;;;;-145.48;100.00;59605.97;6247508;23;20016;-82
2021/01/26 10:37:55;;;;;;;16.73;3.47;;;;;;;-145.48;100.00;59605.97;6246073;23;20003;-83
2021/01/26 10:40:26;;;;;;;10.50;3.30;;;;;;;-145.48;100.00;59605.97;6098491;23;20080;-81
2021/01/26 10:43:02;;;;;;;10.57;3.08;;;;;;;-145.48;100.00;59605.97;6099592;23;20017;-82
2021/01/26 10:45:56;;;;;;;11.73;2.95;;;;;;;-145.48;100.00;59605.97;6123697;23;20009;-81
2021/01/26 10:48:26;;;;;;;11.90;3.08;;;;;;;-145.48;100.00;59605.97;6036199;23;20082;-81
2021/01/26 10:50:53;;;;;;;20.17;4.85;;;;;;;-145.48;100.00;59605.97;6036852;23;20015;-83
2021/01/26 10:53:38;;;;;;;19.38;3.97;;;;;;;-145.48;100.00;59605.97;6039688;23;20003;-86
2021/01/26 10:56:04;;;;;;;18.85;3.13;;;;;;;-145.48;100.00;59605.97;6034922;23;20426;-83
2021/01/26 10:58:30;;;;;;;19.50;2.38;;;;;;;-145.48;100.00;59605.97;6035613;23;20034;-83
2021/01/26 11:01:32;;;;;;;13.73;2.95;;;;;;;-145.48;100.00;59605.97;6035659;23;20038;-84
2021/01/26 11:03:58;;;;;;;6.18;2.90;;;;;;;-145.48;100.00;59605.97;6010705;23;20082;-84
2021/01/26 11:06:24;;;;;;;13.63;4.68;;;;;;;-145.48;100.00;59605.97;6037471;23;20003;-83
2021/01/26 11:08:50;;;;;;;16.98;3.78;;;;;;;-145.48;100.00;59605.97;6039543;23;20018;-83
2021/01/26 11:11:28;;;;;;;14.48;3.75;;;;;;;-145.48;100.00;59605.97;6037266;23;20011;-86
2021/01/26 11:14:19;;;;;;;17.17;2.90;;;;;;;-145.48;100.00;59605.97;6012798;23;20011;-87
2021/01/26 11:16:49;;;;;;;18.23;2.78;;;;;;;-145.48;100.00;59605.97;6081455;23;20031;-87
2021/01/26 11:19:16;;;;;;;17.10;2.38;;;;;;;-145.48;100.00;59605.97;6121628;23;20084;-85
2021/01/26 11:22:09;;;;;;;;;;;;;;;;;;;;;
2021/01/26 11:24:45;;;;;;;13.95;3.55;;;;;;;-145.48;100.00;59605.97;6171689;23;20010;-88
2021/01/26 11:27:11;;;;;;;14.85;2.95;;;;;;;-145.48;100.00;59605.97;6223341;23;20494;-88
2021/01/26 11:29:37;;;;;;;14.70;2.33;;;;;;;-145.48;100.00;59605.97;6221396;23;20016;-88
2021/01/26 11:32:03;;;;;;;19.38;2.47;;;;;;;-145.48;100.00;59605.97;6222293;23;20064;-88
2021/01/26 11:34:29;;;;;;;10.07;2.95;;;;;;;-145.48;100.00;59605.97;6220550;23;20083;-89
2021/01/26 11:40:17;;;;;;;8.82;2.17;;;;;;;-145.48;100.00;59605.97;6246574;23;20016;-89
2021/01/26 11:43:08;;;;;;;8.65;1.90;;;;;;;-145.48;100.00;59605.97;6226176;23;20343;-89
2021/01/26 11:45:37;;;;;;;8.10;2.15;;;;;;;-145.48;100.00;59605.97;6224091;23;20012;-89
2021/01/26 11:48:05;;;;;;;17.58;2.05;;;;;;;-145.48;100.00;59605.97;6224272;23;20012;-89
2021/01/26 11:50:30;;;;;;;8.68;1.90;;;;;;;-145.48;100.00;59605.97;6223553;23;19996;-89
2021/01/26 11:52:56;;;;;;;15.05;2.47;;;;;;;-145.48;100.00;59605.97;6223340;23;20011;-89
2021/01/26 11:55:27;;;;;;;8.45;1.60;;;;;;;-145.48;100.00;59605.97;6208075;23;20107;-79
2021/01/26 11:57:52;;;;;;;11.65;1.77;;;;;;;-145.48;100.00;59605.97;6241918;23;20795;-79
2021/01/26 12:00:21;;;;;;;14.45;3.83;;;;;;;-145.48;100.00;59605.97;6242053;23;20000;-79
2021/01/26 12:02:47;;;;;;;7.63;2.00;;;;;;;-145.48;100.00;59605.97;6243217;23;20015;-79
2021/01/26 12:05:14;;;;;;;13.45;1.80;;;;;;;-145.48;100.00;59605.97;6243663;22;20488;-79